This is the latest recevied weather packets stored in our database for station/object KB2M. If no packets are shown the sender has not sent any weather packets the latest 1 day(s).
| Time | Temp. | Humidity | Pressure | Rain* | Wind** | Luminosity | Snow |
|---|---|---|---|---|---|---|---|
| 1778100909 | 27.22° C | 72% | 1016.9 hPa | 0 mm | - | - | - |
| 1778097906 | 27.22° C | 75% | 1017.2 hPa | 0 mm | - | - | - |
| 1778096705 | 27.22° C | 74% | 1017.2 hPa | 0 mm | - | - | - |
| 1778093702 | 27.22° C | 70% | 1017.9 hPa | 0 mm | - | - | - |
| 1778091900 | 27.22° C | 71% | 1018.2 hPa | 0 mm | - | - | - |
| 1778089498 | 27.22° C | 72% | 1018.2 hPa | 0 mm | - | - | - |
| 1778088897 | 27.22° C | 71% | 1018.6 hPa | 0 mm | - | - | - |
| 1778087696 | 27.22° C | 71% | 1018.6 hPa | 0 mm | - | - | - |
| 1778084092 | 27.78° C | 66% | 1019.3 hPa | 0 mm | - | - | - |
| 1778083491 | 28.33° C | 64% | 1019.3 hPa | 0 mm | - | - | - |
| 1778082891 | 28.33° C | 57% | 1019.3 hPa | 0 mm | - | - | - |
| 1778082261 | 28.33° C | 57% | 1019.3 hPa | 0 mm | - | - | - |
| 1778081631 | 28.33° C | 55% | 1019.3 hPa | 0 mm | - | - | - |
| 1778080401 | 27.78° C | 58% | 1019.3 hPa | 0 mm | - | - | - |
| 1778079201 | 27.22° C | 61% | 1019.3 hPa | 0 mm | - | - | - |
| 1778078601 | 27.22° C | 62% | 1018.9 hPa | 0 mm | - | - | - |
| 1778078001 | 26.67° C | 63% | 1018.9 hPa | 0 mm | - | - | - |
| 1778077401 | 26.67° C | 63% | 1019.3 hPa | 0 mm | - | - | - |
| 1778076771 | 26.11° C | 66% | 1018.9 hPa | 0 mm | - | - | - |
| 1778074369 | 25° C | 73% | 1018.9 hPa | 0 mm | - | - | - |
| 1778073768 | 25° C | 73% | 1018.9 hPa | 0 mm | - | - | - |
| 1778073168 | 24.44° C | 74% | 1018.6 hPa | 0 mm | - | - | - |
| 1778072538 | 23.89° C | 75% | 1018.6 hPa | 0 mm | - | - | - |
| 1778071936 | 23.33° C | 75% | 1018.6 hPa | 0 mm | - | - | - |
| 1778070134 | 21.67° C | 80% | 1018.6 hPa | 0 mm | - | - | - |
* Rain latest hour (hover to see other rain measurements)
** Current wind speed in m/s (hover to see current wind gust speed)